createdAt,value
2019-01-20T00:00:06.292Z,928.75
2019-01-20T00:01:06.248Z,928.79
2019-01-20T00:02:06.222Z,928.76
2019-01-20T00:03:06.160Z,928.79
2019-01-20T00:04:06.116Z,928.77
2019-01-20T00:05:06.072Z,928.75
2019-01-20T00:06:06.007Z,928.75
2019-01-20T00:07:05.977Z,928.74
2019-01-20T00:08:05.943Z,928.77
2019-01-20T00:09:05.896Z,928.70
2019-01-20T00:10:05.830Z,928.76
2019-01-20T00:11:05.800Z,928.76
2019-01-20T00:12:05.742Z,928.79
2019-01-20T00:13:05.750Z,928.81
2019-01-20T00:14:05.676Z,928.88
2019-01-20T00:15:05.619Z,928.90
2019-01-20T00:16:05.573Z,928.91
2019-01-20T00:17:05.550Z,928.93
2019-01-20T00:18:05.566Z,928.94
2019-01-20T00:19:05.448Z,929.02
2019-01-20T00:20:05.427Z,929.00
2019-01-20T00:21:05.359Z,929.02
2019-01-20T00:22:05.306Z,929.03
2019-01-20T00:23:05.308Z,929.09
2019-01-20T00:24:05.227Z,929.13
2019-01-20T00:25:05.224Z,929.17
2019-01-20T00:26:05.160Z,929.18
2019-01-20T00:27:05.111Z,929.18
2019-01-20T00:28:05.045Z,929.17
2019-01-20T00:29:06.797Z,929.20
2019-01-20T00:30:04.971Z,929.23
2019-01-20T00:31:04.905Z,929.26
2019-01-20T00:32:04.863Z,929.27
2019-01-20T00:33:04.837Z,929.31
2019-01-20T00:34:04.781Z,929.34
2019-01-20T00:35:04.752Z,929.38
2019-01-20T00:36:04.741Z,929.44
2019-01-20T00:37:04.649Z,929.48
2019-01-20T00:38:04.619Z,929.52
2019-01-20T00:39:04.575Z,929.55
2019-01-20T00:40:04.524Z,929.53
2019-01-20T00:41:04.491Z,929.58
2019-01-20T00:42:04.422Z,929.59
2019-01-20T00:43:04.403Z,929.63
2019-01-20T00:44:04.343Z,929.64
2019-01-20T00:45:04.346Z,929.64
2019-01-20T00:46:04.254Z,929.63
2019-01-20T00:47:04.201Z,929.66
2019-01-20T00:48:04.166Z,929.66
2019-01-20T00:49:04.135Z,929.64
2019-01-20T00:50:04.091Z,929.60
2019-01-20T00:51:04.047Z,929.60
2019-01-20T00:52:03.992Z,929.54
2019-01-20T00:53:03.974Z,929.53
2019-01-20T00:54:03.909Z,929.50
2019-01-20T00:55:03.871Z,929.46
2019-01-20T00:56:03.827Z,929.41
2019-01-20T00:57:03.784Z,929.43
2019-01-20T00:58:03.804Z,929.51
2019-01-20T00:59:03.742Z,929.52
2019-01-20T01:00:03.638Z,929.57
2019-01-20T01:01:03.594Z,929.63
2019-01-20T01:02:03.591Z,929.68
2019-01-20T01:03:03.513Z,929.68
2019-01-20T01:04:03.456Z,929.76
2019-01-20T01:05:03.433Z,929.81
2019-01-20T01:06:03.391Z,929.87
2019-01-20T01:07:03.388Z,929.94
2019-01-20T01:08:03.301Z,929.93
2019-01-20T01:09:03.256Z,929.95
2019-01-20T01:10:03.214Z,929.99
2019-01-20T01:11:03.185Z,929.94
2019-01-20T01:12:03.111Z,929.93
2019-01-20T01:13:03.081Z,929.94
2019-01-20T01:14:03.023Z,929.93
2019-01-20T01:15:02.992Z,929.92
2019-01-20T01:16:02.936Z,929.92
2019-01-20T01:17:02.891Z,929.90
2019-01-20T01:18:02.887Z,929.86
2019-01-20T01:19:02.805Z,929.90
2019-01-20T01:20:02.765Z,929.91
2019-01-20T01:21:02.742Z,929.95
2019-01-20T01:22:02.671Z,929.97
2019-01-20T01:23:02.640Z,930.04
2019-01-20T01:24:02.589Z,930.11
2019-01-20T01:25:02.558Z,930.09
2019-01-20T01:26:02.500Z,930.12
2019-01-20T01:27:02.452Z,930.10
2019-01-20T01:28:02.407Z,930.10
2019-01-20T01:29:02.375Z,930.07
2019-01-20T01:30:02.324Z,930.10
2019-01-20T01:31:02.274Z,930.07
2019-01-20T01:32:02.252Z,929.99
2019-01-20T01:33:02.199Z,929.95
2019-01-20T01:34:02.150Z,929.92
2019-01-20T01:35:02.102Z,929.93
2019-01-20T01:36:02.058Z,929.91
2019-01-20T01:37:02.011Z,929.87
2019-01-20T01:38:01.969Z,929.84
2019-01-20T01:39:01.934Z,929.91
2019-01-20T01:40:01.917Z,929.92
2019-01-20T01:41:01.835Z,929.93
2019-01-20T01:42:01.801Z,929.95
2019-01-20T01:43:01.744Z,930.04
2019-01-20T01:44:01.704Z,930.08
2019-01-20T01:45:01.676Z,930.12
2019-01-20T01:46:01.640Z,930.12
2019-01-20T01:47:01.581Z,930.12
2019-01-20T01:48:01.536Z,930.09
2019-01-20T01:49:01.479Z,930.04
2019-01-20T01:50:01.447Z,930.00
2019-01-20T01:51:01.390Z,929.96
2019-01-20T01:52:01.360Z,929.96
2019-01-20T01:53:01.314Z,929.93
2019-01-20T01:54:01.271Z,929.95
2019-01-20T01:55:01.253Z,929.97
2019-01-20T01:56:01.183Z,930.02
2019-01-20T01:57:01.138Z,930.03
2019-01-20T01:58:01.097Z,930.05
2019-01-20T01:59:01.050Z,930.02
2019-01-20T02:00:01.031Z,930.04
2019-01-20T02:01:00.960Z,930.06
2019-01-20T02:02:00.915Z,930.07
2019-01-20T02:03:00.920Z,930.02
2019-01-20T02:04:00.827Z,930.00
2019-01-20T02:05:00.775Z,929.98
2019-01-20T02:06:00.741Z,929.93
2019-01-20T02:07:00.723Z,929.91
2019-01-20T02:08:00.650Z,929.97
2019-01-20T02:09:00.583Z,930.09
2019-01-20T02:10:00.582Z,930.25
2019-01-20T02:11:00.528Z,930.30
2019-01-20T02:12:00.461Z,930.43
2019-01-20T02:13:00.421Z,930.50
2019-01-20T02:14:00.374Z,930.56
2019-01-20T02:15:00.340Z,930.60
2019-01-20T02:16:00.294Z,930.59
2019-01-20T02:17:00.228Z,930.56
2019-01-20T02:18:00.234Z,930.62
2019-01-20T02:19:00.147Z,930.62
2019-01-20T02:20:00.238Z,930.68
2019-01-20T02:21:00.050Z,930.64
2019-01-20T02:22:00.047Z,930.65
2019-01-20T02:22:59.987Z,930.65
2019-01-20T02:23:59.931Z,930.65
2019-01-20T02:24:59.887Z,930.65
2019-01-20T02:25:59.836Z,930.62
2019-01-20T02:26:59.796Z,930.69
2019-01-20T02:27:59.748Z,930.72
2019-01-20T02:28:59.716Z,930.72
2019-01-20T02:29:59.671Z,930.77
2019-01-20T02:30:59.616Z,930.78
2019-01-20T02:31:59.561Z,930.75
2019-01-20T02:32:59.526Z,930.73
2019-01-20T02:33:59.474Z,930.65
2019-01-20T02:34:59.441Z,930.66
2019-01-20T02:35:59.383Z,930.59
2019-01-20T02:36:59.370Z,930.53
2019-01-20T02:37:59.307Z,930.50
2019-01-20T02:38:59.258Z,930.51
2019-01-20T02:39:59.218Z,930.52
2019-01-20T02:40:59.183Z,930.51
2019-01-20T02:41:59.117Z,930.41
2019-01-20T02:42:59.089Z,930.37
2019-01-20T02:43:59.052Z,930.32
2019-01-20T02:44:58.954Z,930.29
2019-01-20T02:45:58.992Z,930.26
2019-01-20T02:46:58.913Z,930.21
2019-01-20T02:47:58.849Z,930.20
2019-01-20T02:48:58.836Z,930.19
2019-01-20T02:49:58.779Z,930.16
2019-01-20T02:50:58.734Z,930.12
2019-01-20T02:51:58.715Z,930.16
2019-01-20T02:52:58.623Z,930.18
2019-01-20T02:53:58.587Z,930.24
2019-01-20T02:54:58.556Z,930.30
2019-01-20T02:55:58.510Z,930.40
2019-01-20T02:56:58.444Z,930.39
2019-01-20T02:57:58.433Z,930.40
2019-01-20T02:58:58.367Z,930.40
2019-01-20T02:59:58.327Z,930.34
2019-01-20T03:00:58.265Z,930.24
2019-01-20T03:01:58.225Z,930.13
2019-01-20T03:02:58.196Z,930.00
2019-01-20T03:03:58.180Z,929.93
2019-01-20T03:04:58.108Z,929.90
2019-01-20T03:05:58.062Z,929.95
2019-01-20T03:06:57.996Z,929.96
2019-01-20T03:07:57.959Z,929.97
2019-01-20T03:08:57.906Z,929.98
2019-01-20T03:09:57.875Z,930.01
2019-01-20T03:10:57.816Z,930.02
2019-01-20T03:12:03.378Z,930.07
2019-01-20T03:12:57.734Z,930.09
2019-01-20T03:13:57.689Z,930.15
2019-01-20T03:14:57.649Z,930.17
2019-01-20T03:15:57.600Z,930.19
2019-01-20T03:16:57.556Z,930.19
2019-01-20T03:17:57.504Z,930.16
2019-01-20T03:18:57.469Z,930.19
2019-01-20T03:19:57.414Z,930.21
2019-01-20T03:20:57.380Z,930.22
2019-01-20T03:21:57.332Z,930.20
2019-01-20T03:22:57.294Z,930.21
2019-01-20T03:23:57.241Z,930.18
2019-01-20T03:24:57.209Z,930.14
2019-01-20T03:25:57.194Z,930.10
2019-01-20T03:26:57.167Z,930.01
2019-01-20T03:27:57.129Z,929.95
2019-01-20T03:28:57.022Z,929.88
2019-01-20T03:29:56.977Z,929.82
2019-01-20T03:30:56.933Z,929.81
2019-01-20T03:31:56.902Z,929.81
2019-01-20T03:32:56.849Z,929.77
2019-01-20T03:33:56.806Z,929.74
2019-01-20T03:34:56.795Z,929.75
2019-01-20T03:35:56.711Z,929.80
2019-01-20T03:36:56.671Z,929.81
2019-01-20T03:37:56.652Z,929.87
2019-01-20T03:38:56.571Z,929.82
2019-01-20T03:39:56.515Z,929.83
2019-01-20T03:40:56.493Z,929.86
2019-01-20T03:41:56.448Z,929.85
2019-01-20T03:42:56.397Z,929.87
2019-01-20T03:43:56.357Z,929.93
2019-01-20T03:44:56.308Z,929.98
2019-01-20T03:45:56.261Z,929.98
2019-01-20T03:46:56.210Z,930.04
2019-01-20T03:47:56.158Z,930.05
2019-01-20T03:48:56.125Z,930.07
2019-01-20T03:49:56.090Z,930.05
2019-01-20T03:50:56.036Z,930.02
2019-01-20T03:51:55.978Z,930.02
2019-01-20T03:52:55.934Z,929.98
2019-01-20T03:53:55.899Z,929.96
2019-01-20T03:54:55.846Z,930.01
2019-01-20T03:55:55.808Z,930.03
2019-01-20T03:56:55.764Z,930.03
2019-01-20T03:57:55.711Z,930.01
2019-01-20T03:58:55.678Z,929.99
2019-01-20T03:59:55.629Z,929.95
2019-01-20T04:00:55.672Z,929.85
2019-01-20T04:01:55.531Z,929.84
2019-01-20T04:02:55.591Z,929.85
2019-01-20T04:03:55.470Z,929.85
2019-01-20T04:04:55.397Z,929.81
2019-01-20T04:05:55.407Z,929.85
2019-01-20T04:06:55.339Z,929.81
2019-01-20T04:07:55.284Z,929.80
2019-01-20T04:08:55.227Z,929.78
2019-01-20T04:09:55.182Z,929.80
2019-01-20T04:10:55.144Z,929.77
2019-01-20T04:11:55.093Z,929.80
2019-01-20T04:12:55.063Z,929.76
2019-01-20T04:13:54.995Z,929.69
2019-01-20T04:14:54.950Z,929.63
2019-01-20T04:15:54.939Z,929.66
2019-01-20T04:16:54.917Z,929.64
2019-01-20T04:17:54.832Z,929.63
2019-01-20T04:18:54.780Z,929.65
2019-01-20T04:19:54.726Z,929.59
2019-01-20T04:20:54.682Z,929.64
2019-01-20T04:21:54.637Z,929.60
2019-01-20T04:22:54.616Z,929.61
2019-01-20T04:23:54.557Z,929.65
2019-01-20T04:24:54.515Z,929.67
2019-01-20T04:25:54.468Z,929.65
2019-01-20T04:26:54.414Z,929.63
2019-01-20T04:27:54.377Z,929.60
2019-01-20T04:28:54.324Z,929.57
2019-01-20T04:29:54.280Z,929.55
2019-01-20T04:30:54.256Z,929.51
2019-01-20T04:31:54.202Z,929.55
2019-01-20T04:32:54.146Z,929.58
2019-01-20T04:33:54.121Z,929.59
2019-01-20T04:34:54.068Z,929.67
2019-01-20T04:35:54.031Z,929.61
2019-01-20T04:36:53.965Z,929.63
2019-01-20T04:37:53.942Z,929.59
2019-01-20T04:38:53.884Z,929.57
2019-01-20T04:39:53.831Z,929.57
2019-01-20T04:40:53.796Z,929.54
2019-01-20T04:41:53.741Z,929.51
2019-01-20T04:42:53.647Z,929.47
2019-01-20T04:43:53.667Z,929.42
2019-01-20T04:44:53.666Z,929.41
2019-01-20T04:45:53.577Z,929.33
2019-01-20T04:46:53.517Z,929.23
2019-01-20T04:47:53.499Z,929.20
2019-01-20T04:48:53.428Z,929.14
2019-01-20T04:49:53.420Z,929.12
2019-01-20T04:50:53.356Z,929.09
2019-01-20T04:51:53.314Z,929.08
2019-01-20T04:52:53.265Z,929.08
2019-01-20T04:53:53.206Z,929.13
2019-01-20T04:54:53.130Z,929.11
2019-01-20T04:55:53.127Z,929.11
2019-01-20T04:56:53.110Z,929.13
2019-01-20T04:57:53.037Z,929.12
2019-01-20T04:58:53.033Z,929.10
2019-01-20T04:59:52.956Z,929.13
2019-01-20T05:00:52.889Z,929.05
2019-01-20T05:01:52.866Z,929.08
2019-01-20T05:02:52.822Z,929.05
2019-01-20T05:03:52.777Z,929.08
2019-01-20T05:04:52.731Z,929.12
2019-01-20T05:05:52.665Z,929.11
2019-01-20T05:06:52.620Z,929.13
2019-01-20T05:07:52.596Z,929.13
2019-01-20T05:08:52.539Z,929.11
2019-01-20T05:09:52.498Z,929.13
2019-01-20T05:10:52.461Z,929.08
2019-01-20T05:11:52.416Z,929.06
2019-01-20T05:12:52.354Z,929.09
2019-01-20T05:13:52.344Z,929.04
2019-01-20T05:14:52.269Z,929.01
2019-01-20T05:15:52.238Z,929.00
2019-01-20T05:16:52.201Z,928.99
2019-01-20T05:17:52.160Z,928.98
2019-01-20T05:18:52.090Z,928.91
2019-01-20T05:19:52.045Z,928.95
2019-01-20T05:20:52.003Z,928.89
2019-01-20T05:21:51.986Z,928.85
2019-01-20T05:22:51.900Z,928.84
2019-01-20T05:23:51.870Z,928.75
2019-01-20T05:24:51.897Z,928.71
2019-01-20T05:25:51.789Z,928.66
2019-01-20T05:26:51.738Z,928.68
2019-01-20T05:27:51.688Z,928.66
2019-01-20T05:28:51.707Z,928.64
2019-01-20T05:29:51.598Z,928.66
2019-01-20T05:30:51.553Z,928.63
2019-01-20T05:31:51.558Z,928.65
2019-01-20T05:32:51.468Z,928.67
2019-01-20T05:33:51.446Z,928.66
2019-01-20T05:34:51.369Z,928.70
2019-01-20T05:35:51.337Z,928.76
2019-01-20T05:36:51.279Z,928.76
2019-01-20T05:37:51.253Z,928.81
2019-01-20T05:38:51.182Z,928.85
2019-01-20T05:39:51.145Z,928.83
2019-01-20T05:40:51.114Z,928.88
2019-01-20T05:41:51.046Z,928.94
2019-01-20T05:42:51.029Z,928.94
2019-01-20T05:43:50.958Z,928.95
2019-01-20T05:44:50.912Z,928.95
2019-01-20T05:45:50.888Z,928.97
2019-01-20T05:46:50.822Z,929.00
2019-01-20T05:47:50.799Z,929.04
2019-01-20T05:48:50.754Z,929.04
2019-01-20T05:49:50.687Z,929.11
2019-01-20T05:50:50.676Z,929.20
2019-01-20T05:51:50.619Z,929.14
2019-01-20T05:52:50.599Z,929.10
2019-01-20T05:53:50.559Z,929.09
2019-01-20T05:54:50.485Z,929.03
2019-01-20T05:55:50.432Z,929.01
2019-01-20T05:56:50.373Z,928.96
2019-01-20T05:57:50.337Z,928.91
2019-01-20T05:58:50.297Z,928.86
2019-01-20T05:59:50.262Z,928.83
2019-01-20T06:00:50.207Z,928.80
2019-01-20T06:01:50.174Z,928.79
2019-01-20T06:02:50.114Z,928.82
2019-01-20T06:03:50.065Z,928.81
2019-01-20T06:04:50.041Z,928.84
2019-01-20T06:05:49.992Z,928.84
2019-01-20T06:06:49.946Z,928.86
2019-01-20T06:07:49.901Z,928.85
2019-01-20T06:08:49.843Z,928.86
2019-01-20T06:09:49.811Z,928.84
2019-01-20T06:10:49.804Z,928.86
2019-01-20T06:11:49.726Z,928.89
2019-01-20T06:12:54.357Z,928.90
2019-01-20T06:13:49.634Z,928.89
2019-01-20T06:14:49.587Z,928.85
2019-01-20T06:15:49.543Z,928.87
2019-01-20T06:16:49.498Z,928.81
2019-01-20T06:17:49.452Z,928.81
2019-01-20T06:18:49.402Z,928.78
2019-01-20T06:19:49.378Z,928.77
2019-01-20T06:20:49.318Z,928.73
2019-01-20T06:21:49.252Z,928.66
2019-01-20T06:22:49.208Z,928.65
2019-01-20T06:23:49.214Z,928.66
2019-01-20T06:24:49.139Z,928.62
2019-01-20T06:25:49.081Z,928.63
2019-01-20T06:26:49.042Z,928.60
2019-01-20T06:27:48.989Z,928.60
2019-01-20T06:28:48.947Z,928.54
2019-01-20T06:29:48.894Z,928.56
2019-01-20T06:30:48.878Z,928.55
2019-01-20T06:31:48.812Z,928.53
2019-01-20T06:32:48.767Z,928.52
2019-01-20T06:33:48.714Z,928.55
2019-01-20T06:34:48.947Z,928.55
2019-01-20T06:35:48.624Z,928.53
2019-01-20T06:36:48.606Z,928.57
2019-01-20T06:37:48.555Z,928.56
2019-01-20T06:38:48.510Z,928.57
2019-01-20T06:39:48.443Z,928.57
2019-01-20T06:40:48.437Z,928.57
2019-01-20T06:41:48.391Z,928.61
2019-01-20T06:42:48.357Z,928.68
2019-01-20T06:43:48.278Z,928.67
2019-01-20T06:44:48.232Z,928.72
2019-01-20T06:45:48.174Z,928.75
2019-01-20T06:46:48.137Z,928.76
2019-01-20T06:47:48.099Z,928.79
2019-01-20T06:48:48.062Z,928.74
2019-01-20T06:49:47.994Z,928.68
2019-01-20T06:50:47.971Z,928.61
2019-01-20T06:51:47.919Z,928.60
2019-01-20T06:52:47.872Z,928.63
2019-01-20T06:53:47.814Z,928.61
2019-01-20T06:54:47.778Z,928.64
2019-01-20T06:55:47.745Z,928.70
2019-01-20T06:56:47.712Z,928.68
2019-01-20T06:57:47.634Z,928.69
2019-01-20T06:58:47.610Z,928.66
2019-01-20T06:59:47.553Z,928.62
2019-01-20T07:00:47.521Z,928.67
2019-01-20T07:01:47.464Z,928.72
2019-01-20T07:02:47.477Z,928.67
2019-01-20T07:03:47.377Z,928.70
2019-01-20T07:04:47.319Z,928.71
2019-01-20T07:05:47.312Z,928.70
2019-01-20T07:06:47.253Z,928.70
2019-01-20T07:07:47.194Z,928.74
2019-01-20T07:08:47.187Z,928.75
2019-01-20T07:09:47.094Z,928.74
2019-01-20T07:10:47.071Z,928.78
2019-01-20T07:11:47.004Z,928.83
2019-01-20T07:12:46.959Z,928.82
2019-01-20T07:13:46.927Z,928.83
2019-01-20T07:14:46.877Z,928.84
2019-01-20T07:15:46.834Z,928.78
2019-01-20T07:16:46.795Z,928.82
2019-01-20T07:17:46.750Z,928.72
2019-01-20T07:18:46.702Z,928.75
2019-01-20T07:19:46.707Z,928.77
2019-01-20T07:20:46.612Z,928.74
2019-01-20T07:21:46.568Z,928.81
2019-01-20T07:22:46.522Z,928.73
2019-01-20T07:23:46.529Z,928.79
2019-01-20T07:24:46.441Z,928.74
2019-01-20T07:25:46.383Z,928.68
2019-01-20T07:26:46.376Z,928.69
2019-01-20T07:27:46.306Z,928.68
2019-01-20T07:28:46.280Z,928.66
2019-01-20T07:29:46.194Z,928.67
2019-01-20T07:30:46.171Z,928.68
2019-01-20T07:31:46.118Z,928.66
2019-01-20T07:32:46.085Z,928.65
2019-01-20T07:33:46.036Z,928.70
2019-01-20T07:34:45.991Z,928.70
2019-01-20T07:35:45.933Z,928.73
2019-01-20T07:36:45.880Z,928.72
2019-01-20T07:37:45.853Z,928.73
2019-01-20T07:38:45.838Z,928.77
2019-01-20T07:39:45.761Z,928.79
2019-01-20T07:40:45.700Z,928.79
2019-01-20T07:41:45.665Z,928.77
2019-01-20T07:42:45.610Z,928.78
2019-01-20T07:43:45.579Z,928.73
2019-01-20T07:44:45.543Z,928.73
2019-01-20T07:45:45.489Z,928.72
2019-01-20T07:46:45.529Z,928.73
2019-01-20T07:47:45.416Z,928.76
2019-01-20T07:48:45.412Z,928.75
2019-01-20T07:49:45.336Z,928.72
2019-01-20T07:50:45.272Z,928.72
2019-01-20T07:51:45.206Z,928.72
2019-01-20T07:52:45.213Z,928.76
2019-01-20T07:53:45.124Z,928.79
2019-01-20T07:54:45.079Z,928.79
2019-01-20T07:55:45.047Z,928.79
2019-01-20T07:56:45.029Z,928.80
2019-01-20T07:57:44.964Z,928.83
2019-01-20T07:58:44.913Z,928.79
2019-01-20T07:59:44.859Z,928.78
2019-01-20T08:00:44.850Z,928.75
2019-01-20T08:01:44.778Z,928.77
2019-01-20T08:02:44.720Z,928.79
2019-01-20T08:03:44.681Z,928.78
2019-01-20T08:04:44.643Z,928.77
2019-01-20T08:05:44.577Z,928.81
2019-01-20T08:06:44.556Z,928.84
2019-01-20T08:07:44.581Z,928.87
2019-01-20T08:08:44.442Z,928.83
2019-01-20T08:09:44.411Z,928.85
2019-01-20T08:10:44.365Z,928.88
2019-01-20T08:11:44.337Z,928.88
2019-01-20T08:12:44.266Z,928.90
2019-01-20T08:13:44.229Z,928.91
2019-01-20T08:14:44.185Z,928.97
2019-01-20T08:15:44.167Z,929.00
2019-01-20T08:16:44.082Z,929.02
2019-01-20T08:17:44.065Z,929.01
2019-01-20T08:18:44.015Z,929.06
2019-01-20T08:19:43.961Z,928.98
2019-01-20T08:20:43.943Z,928.99
2019-01-20T08:21:43.858Z,928.98
2019-01-20T08:22:43.817Z,929.00
2019-01-20T08:23:43.783Z,929.01
2019-01-20T08:24:43.737Z,929.03
2019-01-20T08:25:43.700Z,929.08
2019-01-20T08:26:43.643Z,929.07
2019-01-20T08:27:43.589Z,929.05
2019-01-20T08:28:43.545Z,929.09
2019-01-20T08:29:43.521Z,929.11
2019-01-20T08:30:43.475Z,929.11
2019-01-20T08:31:43.466Z,929.13
2019-01-20T08:32:43.373Z,929.19
2019-01-20T08:33:43.341Z,929.19
2019-01-20T08:34:43.275Z,929.24
2019-01-20T08:35:43.238Z,929.27
2019-01-20T08:36:43.247Z,929.21
2019-01-20T08:37:43.153Z,929.29
2019-01-20T08:38:43.148Z,929.27
2019-01-20T08:39:43.016Z,929.28
2019-01-20T08:40:43.014Z,929.23
2019-01-20T08:41:42.978Z,929.29
2019-01-20T08:42:42.920Z,929.29
2019-01-20T08:43:42.894Z,929.37
2019-01-20T08:44:42.847Z,929.36
2019-01-20T08:45:42.790Z,929.40
2019-01-20T08:46:42.758Z,929.45
2019-01-20T08:47:42.700Z,929.52
2019-01-20T08:48:42.647Z,929.54
2019-01-20T08:49:42.656Z,929.57
2019-01-20T08:50:42.579Z,929.55
2019-01-20T08:51:42.524Z,929.55
2019-01-20T08:52:42.467Z,929.59
2019-01-20T08:53:42.431Z,929.56
2019-01-20T08:54:42.386Z,929.59
2019-01-20T08:55:42.387Z,929.59
2019-01-20T08:56:42.309Z,929.63
2019-01-20T08:57:42.303Z,929.65
2019-01-20T08:58:42.211Z,929.66
2019-01-20T08:59:42.170Z,929.69
2019-01-20T09:00:42.118Z,929.70
2019-01-20T09:01:42.131Z,929.77
2019-01-20T09:02:42.040Z,929.77
2019-01-20T09:03:41.986Z,929.77
2019-01-20T09:04:41.937Z,929.75
2019-01-20T09:05:41.884Z,929.75
2019-01-20T09:06:41.852Z,929.76
2019-01-20T09:07:41.845Z,929.79
2019-01-20T09:08:41.762Z,929.81
2019-01-20T09:09:41.704Z,929.83
2019-01-20T09:10:41.673Z,929.83
2019-01-20T09:11:41.623Z,929.81
2019-01-20T09:12:41.569Z,929.85
2019-01-20T09:13:41.544Z,929.88
2019-01-20T09:14:41.488Z,929.89
2019-01-20T09:15:41.443Z,929.88
2019-01-20T09:16:41.485Z,929.86
2019-01-20T09:17:41.399Z,929.81
2019-01-20T09:18:41.313Z,929.80
2019-01-20T09:19:41.255Z,929.83
2019-01-20T09:20:41.210Z,929.81
2019-01-20T09:21:41.187Z,929.86
2019-01-20T09:22:41.142Z,929.86
2019-01-20T09:23:41.075Z,929.85
2019-01-20T09:24:41.058Z,929.85
2019-01-20T09:25:41.044Z,929.84
2019-01-20T09:26:40.962Z,929.86
2019-01-20T09:27:40.917Z,929.84
2019-01-20T09:28:40.859Z,929.91
2019-01-20T09:29:40.996Z,929.93
2019-01-20T09:30:40.770Z,929.97
2019-01-20T09:31:40.725Z,929.96
2019-01-20T09:32:40.742Z,929.99
2019-01-20T09:33:40.693Z,930.05
2019-01-20T09:34:40.636Z,930.04
2019-01-20T09:35:40.550Z,929.99
2019-01-20T09:36:40.552Z,930.01
2019-01-20T09:37:40.457Z,930.02
2019-01-20T09:38:40.404Z,930.03
2019-01-20T09:39:40.360Z,930.11
2019-01-20T09:40:40.327Z,930.06
2019-01-20T09:41:40.281Z,930.03
2019-01-20T09:42:40.234Z,930.06
2019-01-20T09:43:46.865Z,930.05
2019-01-20T09:44:40.184Z,930.15
2019-01-20T09:45:40.106Z,930.24
2019-01-20T09:46:40.096Z,930.24
2019-01-20T09:47:40.844Z,930.17
2019-01-20T09:48:40.010Z,930.16
2019-01-20T09:49:39.917Z,930.16
2019-01-20T09:50:39.896Z,930.30
2019-01-20T09:51:39.842Z,930.39
2019-01-20T09:52:39.794Z,930.49
2019-01-20T09:53:39.766Z,930.46
2019-01-20T09:54:39.706Z,930.52
2019-01-20T09:55:39.727Z,930.55
2019-01-20T09:56:39.625Z,930.67
2019-01-20T09:57:39.668Z,930.71
2019-01-20T09:58:39.548Z,930.70
2019-01-20T09:59:39.498Z,930.73
2019-01-20T10:00:39.522Z,930.80
2019-01-20T10:01:39.423Z,930.78
2019-01-20T10:02:39.369Z,930.80
2019-01-20T10:03:39.412Z,930.75
2019-01-20T10:04:39.301Z,930.81
2019-01-20T10:05:39.240Z,930.73
2019-01-20T10:06:39.225Z,930.78
2019-01-20T10:07:39.183Z,930.81
2019-01-20T10:08:39.132Z,930.87
2019-01-20T10:09:39.087Z,930.90
2019-01-20T10:10:39.063Z,930.93
2019-01-20T10:11:39.023Z,930.94
2019-01-20T10:12:38.981Z,930.95
2019-01-20T10:13:38.949Z,930.89
2019-01-20T10:14:38.908Z,930.82
2019-01-20T10:15:38.873Z,930.81
2019-01-20T10:16:38.841Z,930.83
2019-01-20T10:17:38.799Z,930.84
2019-01-20T10:18:38.778Z,930.87
2019-01-20T10:19:38.730Z,930.79
2019-01-20T10:20:38.687Z,930.85
2019-01-20T10:21:38.652Z,930.96
2019-01-20T10:22:38.617Z,930.95
2019-01-20T10:23:38.591Z,930.94
2019-01-20T10:24:38.621Z,930.94
2019-01-20T10:25:38.536Z,930.92
2019-01-20T10:26:40.121Z,930.87
2019-01-20T10:27:38.469Z,930.73
2019-01-20T10:28:38.519Z,930.55
2019-01-20T10:29:38.388Z,930.42
2019-01-20T10:30:38.346Z,930.45
2019-01-20T10:31:38.325Z,930.49
2019-01-20T10:32:38.303Z,930.52
2019-01-20T10:33:38.251Z,930.54
2019-01-20T10:34:38.215Z,930.55
2019-01-20T10:35:38.182Z,930.70
2019-01-20T10:36:38.136Z,930.92
2019-01-20T10:37:38.113Z,930.96
2019-01-20T10:38:38.085Z,931.03
2019-01-20T10:39:38.049Z,931.04
2019-01-20T10:40:37.999Z,931.12
2019-01-20T10:41:37.963Z,931.19
2019-01-20T10:42:37.967Z,931.28
2019-01-20T10:43:37.882Z,931.21
2019-01-20T10:44:37.894Z,930.99
2019-01-20T10:45:37.808Z,930.68
2019-01-20T10:46:37.849Z,930.66
2019-01-20T10:47:37.763Z,930.65
2019-01-20T10:48:37.700Z,930.65
2019-01-20T10:49:37.672Z,930.61
2019-01-20T10:50:37.740Z,930.60
2019-01-20T10:51:37.603Z,930.52
2019-01-20T10:52:37.555Z,930.49
2019-01-20T10:53:37.538Z,930.53
2019-01-20T10:54:37.501Z,930.49
2019-01-20T10:55:37.454Z,930.49
2019-01-20T10:56:37.445Z,930.50
2019-01-20T10:57:37.366Z,930.47
2019-01-20T10:58:37.341Z,930.52
2019-01-20T10:59:37.290Z,930.54
2019-01-20T11:00:37.266Z,930.52
2019-01-20T11:01:37.250Z,930.59
2019-01-20T11:02:37.183Z,930.57
2019-01-20T11:03:37.150Z,930.60
2019-01-20T11:04:37.106Z,930.63
2019-01-20T11:05:37.060Z,930.62
2019-01-20T11:06:37.021Z,930.57
2019-01-20T11:07:36.993Z,930.58
2019-01-20T11:08:36.962Z,930.62
2019-01-20T11:09:36.911Z,930.61
2019-01-20T11:10:36.862Z,930.60
2019-01-20T11:11:36.844Z,930.61
2019-01-20T11:12:36.795Z,930.59
2019-01-20T11:13:36.751Z,930.59
2019-01-20T11:14:36.711Z,930.54
2019-01-20T11:15:36.663Z,930.55
2019-01-20T11:16:36.632Z,930.55
2019-01-20T11:17:36.674Z,930.54
2019-01-20T11:18:36.543Z,930.56
2019-01-20T11:19:36.525Z,930.53
2019-01-20T11:20:36.472Z,930.55
2019-01-20T11:21:36.431Z,930.58
2019-01-20T11:22:36.383Z,930.57
2019-01-20T11:23:36.355Z,930.57
2019-01-20T11:24:36.302Z,930.54
2019-01-20T11:25:36.282Z,930.53
2019-01-20T11:26:36.273Z,930.56
2019-01-20T11:27:36.202Z,930.55
2019-01-20T11:28:36.212Z,930.56
2019-01-20T11:29:36.145Z,930.65
2019-01-20T11:30:36.073Z,930.66
2019-01-20T11:31:36.027Z,930.68
2019-01-20T11:32:42.325Z,930.67
2019-01-20T11:33:35.948Z,930.62
2019-01-20T11:34:35.919Z,930.58
2019-01-20T11:35:35.878Z,930.61
2019-01-20T11:36:35.837Z,930.62
2019-01-20T11:37:35.795Z,930.59
2019-01-20T11:38:35.808Z,930.60
2019-01-20T11:39:35.707Z,930.60
2019-01-20T11:40:35.676Z,930.58
2019-01-20T11:41:35.636Z,930.61
2019-01-20T11:42:35.593Z,930.53
2019-01-20T11:43:35.553Z,930.55
2019-01-20T11:44:35.513Z,930.57
2019-01-20T11:45:35.472Z,930.61
2019-01-20T11:46:35.431Z,930.65
2019-01-20T11:47:41.804Z,930.65
2019-01-20T11:48:35.341Z,930.69
2019-01-20T11:49:35.288Z,930.71
2019-01-20T11:50:35.290Z,930.70
2019-01-20T11:51:35.207Z,930.72
2019-01-20T11:52:35.281Z,930.71
2019-01-20T11:53:35.140Z,930.70
2019-01-20T11:54:35.130Z,930.68
2019-01-20T11:55:35.057Z,930.62
2019-01-20T11:56:35.012Z,930.60
2019-01-20T11:57:34.985Z,930.65
2019-01-20T11:58:34.971Z,930.70
2019-01-20T11:59:34.928Z,930.63
2019-01-20T12:00:34.844Z,930.67
2019-01-20T12:01:34.801Z,930.67
2019-01-20T12:02:34.780Z,930.67
2019-01-20T12:03:34.719Z,930.66
2019-01-20T12:04:34.695Z,930.62
2019-01-20T12:05:34.654Z,930.65
2019-01-20T12:06:34.609Z,930.60
2019-01-20T12:07:34.576Z,930.64
2019-01-20T12:08:34.527Z,930.64
2019-01-20T12:09:34.489Z,930.60
2019-01-20T12:10:34.593Z,930.58
2019-01-20T12:11:34.400Z,930.61
2019-01-20T12:12:34.371Z,930.60
2019-01-20T12:13:34.309Z,930.55
2019-01-20T12:14:34.358Z,930.59
2019-01-20T12:15:34.232Z,930.52
2019-01-20T12:16:34.196Z,930.53
2019-01-20T12:17:34.215Z,930.54
2019-01-20T12:18:34.121Z,930.54
2019-01-20T12:19:34.095Z,930.50
2019-01-20T12:20:34.027Z,930.53
2019-01-20T12:21:33.989Z,930.50
2019-01-20T12:22:34.023Z,930.51
2019-01-20T12:23:33.907Z,930.51
2019-01-20T12:24:33.915Z,930.56
2019-01-20T12:25:33.833Z,930.56
2019-01-20T12:26:33.846Z,930.55
2019-01-20T12:27:33.748Z,930.61